KDFI/DFI METAR and TAF weather

Enter ICAO airport designator
Station Type Date Time Source
KDFI METAR 2021/03/08 01:53 UTC NOAA

KDFI 080153Z AUTO 17003KT 10SM CLR M01/M09 A3042 RMK AO2 SLP311 T10061094


Station Type Date Time Source
KDFI Decoded METAR 2021/03/08 01:53 UTC NOAA

DEFIANCE MEMORIAL AIRPORT, OH, United States (KDFI) 41-20N 84-26W 219M
Mar 07, 2021 - 08:53 PM EST / 2021.03.08 0153 UTC
Wind: from the S (170 degrees) at 3 MPH (3 KT):0
Visibility: 10 mile(s):0
Sky conditions: clear
Temperature: 30.9 F (-0.6 C)
Dew Point: 15.1 F (-9.4 C)
Relative Humidity: 51%
Pressure (altimeter): 30.42 in. Hg (1030 hPa)
ob: KDFI 080153Z AUTO 17003KT 10SM CLR M01/M09 A3042 RMK AO2 SLP311 T10061094
cycle: 2

Station Type Date Time Source
KDFI TAF UTC NOAA

Error!

Example: see airport list